createdAt,value
2018-07-30T00:00:24.840Z,2.30
2018-07-30T00:01:24.841Z,2.40
2018-07-30T00:02:24.807Z,2.20
2018-07-30T00:03:24.794Z,2.50
2018-07-30T00:04:24.802Z,2.10
2018-07-30T00:05:24.785Z,2.10
2018-07-30T00:06:24.814Z,2.20
2018-07-30T00:07:24.753Z,2.30
2018-07-30T00:08:24.746Z,2.30
2018-07-30T00:09:24.729Z,2.30
2018-07-30T00:10:24.722Z,2.20
2018-07-30T00:11:24.731Z,2.20
2018-07-30T00:12:24.724Z,2.20
2018-07-30T00:13:24.700Z,2.30
2018-07-30T00:14:24.674Z,2.10
2018-07-30T00:15:24.671Z,2.40
2018-07-30T00:16:24.677Z,2.30
2018-07-30T00:17:24.655Z,2.20
2018-07-30T00:18:24.646Z,2.20
2018-07-30T00:19:24.620Z,2.30
2018-07-30T00:20:24.611Z,2.30
2018-07-30T00:21:24.659Z,2.20
2018-07-30T00:22:24.592Z,2.20
2018-07-30T00:23:24.602Z,2.30
2018-07-30T00:24:24.581Z,2.30
2018-07-30T00:25:24.554Z,2.10
2018-07-30T00:26:24.567Z,2.50
2018-07-30T00:27:24.584Z,2.50
2018-07-30T00:28:24.522Z,2.20
2018-07-30T00:29:24.512Z,2.20
2018-07-30T00:30:24.608Z,2.30
2018-07-30T00:31:24.544Z,2.30
2018-07-30T00:32:25.265Z,2.00
2018-07-30T00:33:24.786Z,2.30
2018-07-30T00:34:24.455Z,2.10
2018-07-30T00:35:24.445Z,2.20
2018-07-30T00:36:24.458Z,2.40
2018-07-30T00:37:24.489Z,2.40
2018-07-30T00:38:24.412Z,2.20
2018-07-30T00:39:24.398Z,2.30
2018-07-30T00:40:24.449Z,2.50
2018-07-30T00:41:24.414Z,2.40
2018-07-30T00:42:24.370Z,2.20
2018-07-30T00:43:24.353Z,2.20
2018-07-30T00:44:24.343Z,2.20
2018-07-30T00:45:24.364Z,2.40
2018-07-30T00:46:24.355Z,2.30
2018-07-30T00:47:24.309Z,2.40
2018-07-30T00:48:24.305Z,2.50
2018-07-30T00:49:24.288Z,2.40
2018-07-30T00:50:24.304Z,2.40
2018-07-30T00:51:24.313Z,2.30
2018-07-30T00:52:24.260Z,2.40
2018-07-30T00:53:24.253Z,2.30
2018-07-30T00:54:24.267Z,2.40
2018-07-30T00:55:24.237Z,2.50
2018-07-30T00:56:24.241Z,2.30
2018-07-30T00:57:24.252Z,2.40
2018-07-30T00:58:24.189Z,2.40
2018-07-30T00:59:24.180Z,2.30
2018-07-30T01:00:24.254Z,2.40
2018-07-30T01:01:24.181Z,2.50
2018-07-30T01:02:24.149Z,2.40
2018-07-30T01:03:24.160Z,2.00
2018-07-30T01:04:24.122Z,2.10
2018-07-30T01:05:24.183Z,2.50
2018-07-30T01:06:24.127Z,2.60
2018-07-30T01:07:24.091Z,2.60
2018-07-30T01:08:24.095Z,2.60
2018-07-30T01:09:24.067Z,2.40
2018-07-30T01:10:24.057Z,2.50
2018-07-30T01:11:24.099Z,2.40
2018-07-30T01:12:24.038Z,2.60
2018-07-30T01:13:24.038Z,2.50
2018-07-30T01:14:24.079Z,2.30
2018-07-30T01:15:24.005Z,2.30
2018-07-30T01:16:24.016Z,2.60
2018-07-30T01:17:23.982Z,2.30
2018-07-30T01:18:24.019Z,2.50
2018-07-30T01:19:23.958Z,2.50
2018-07-30T01:20:23.947Z,2.30
2018-07-30T01:21:23.958Z,2.20
2018-07-30T01:22:23.953Z,2.30
2018-07-30T01:23:23.917Z,2.30
2018-07-30T01:24:23.925Z,2.20
2018-07-30T01:25:23.891Z,2.50
2018-07-30T01:26:23.917Z,2.40
2018-07-30T01:27:23.869Z,2.30
2018-07-30T01:28:23.858Z,2.20
2018-07-30T01:29:23.848Z,2.00
2018-07-30T01:30:23.854Z,2.50
2018-07-30T01:31:23.880Z,2.30
2018-07-30T01:32:23.816Z,2.50
2018-07-30T01:33:23.802Z,2.30
2018-07-30T01:34:23.795Z,2.50
2018-07-30T01:35:23.780Z,2.10
2018-07-30T01:36:23.814Z,2.30
2018-07-30T01:37:23.873Z,2.20
2018-07-30T01:38:23.765Z,2.40
2018-07-30T01:39:23.741Z,2.40
2018-07-30T01:40:23.726Z,2.60
2018-07-30T01:41:23.792Z,2.50
2018-07-30T01:42:23.711Z,2.40
2018-07-30T01:43:23.716Z,2.30
2018-07-30T01:44:23.686Z,2.80
2018-07-30T01:45:23.677Z,2.60
2018-07-30T01:46:23.710Z,2.50
2018-07-30T01:47:23.669Z,2.60
2018-07-30T01:48:23.649Z,2.50
2018-07-30T01:49:23.665Z,2.40
2018-07-30T01:50:23.617Z,2.30
2018-07-30T01:51:23.637Z,2.50
2018-07-30T01:52:23.593Z,2.60
2018-07-30T01:53:23.588Z,2.40
2018-07-30T01:54:23.575Z,2.20
2018-07-30T01:55:23.671Z,2.30
2018-07-30T01:56:23.577Z,2.40
2018-07-30T01:57:23.538Z,2.60
2018-07-30T01:58:23.528Z,2.30
2018-07-30T01:59:23.541Z,2.20
2018-07-30T02:00:23.506Z,2.60
2018-07-30T02:01:23.524Z,2.50
2018-07-30T02:02:23.493Z,2.50
2018-07-30T02:03:23.490Z,2.20
2018-07-30T02:04:23.469Z,2.40
2018-07-30T02:05:23.472Z,2.50
2018-07-30T02:06:23.493Z,2.60
2018-07-30T02:07:23.427Z,2.50
2018-07-30T02:08:23.488Z,2.40
2018-07-30T02:09:23.405Z,2.50
2018-07-30T02:10:23.416Z,2.50
2018-07-30T02:11:23.428Z,2.50
2018-07-30T02:12:23.389Z,2.50
2018-07-30T02:13:23.373Z,2.60
2018-07-30T02:14:23.381Z,2.40
2018-07-30T02:15:23.340Z,2.50
2018-07-30T02:16:23.409Z,2.60
2018-07-30T02:17:23.325Z,2.30
2018-07-30T02:18:23.307Z,2.60
2018-07-30T02:19:23.386Z,2.20
2018-07-30T02:20:23.287Z,2.30
2018-07-30T02:21:23.346Z,2.40
2018-07-30T02:22:23.286Z,2.40
2018-07-30T02:23:23.249Z,2.60
2018-07-30T02:24:23.239Z,2.40
2018-07-30T02:25:23.282Z,2.30
2018-07-30T02:26:23.242Z,2.50
2018-07-30T02:27:23.210Z,2.40
2018-07-30T02:28:23.220Z,2.50
2018-07-30T02:29:23.182Z,2.20
2018-07-30T02:30:23.172Z,2.70
2018-07-30T02:31:23.226Z,2.40
2018-07-30T02:32:23.149Z,2.50
2018-07-30T02:33:23.137Z,2.40
2018-07-30T02:34:23.140Z,2.40
2018-07-30T02:35:23.163Z,2.20
2018-07-30T02:36:23.263Z,2.30
2018-07-30T02:37:23.095Z,2.60
2018-07-30T02:38:23.309Z,2.40
2018-07-30T02:39:23.079Z,2.20
2018-07-30T02:40:23.064Z,2.40
2018-07-30T02:41:23.105Z,2.10
2018-07-30T02:42:23.061Z,2.50
2018-07-30T02:43:23.029Z,2.40
2018-07-30T02:44:23.037Z,2.50
2018-07-30T02:45:23.050Z,2.40
2018-07-30T02:46:23.025Z,2.10
2018-07-30T02:47:22.985Z,2.50
2018-07-30T02:48:23.023Z,2.60
2018-07-30T02:49:23.107Z,2.50
2018-07-30T02:50:22.951Z,2.40
2018-07-30T02:51:22.998Z,2.60
2018-07-30T02:52:22.926Z,2.80
2018-07-30T02:53:22.921Z,2.30
2018-07-30T02:54:22.949Z,2.40
2018-07-30T02:55:22.899Z,2.50
2018-07-30T02:56:22.910Z,2.40
2018-07-30T02:57:22.912Z,2.40
2018-07-30T02:58:22.871Z,2.70
2018-07-30T02:59:22.856Z,2.40
2018-07-30T03:00:22.877Z,2.60
2018-07-30T03:01:22.854Z,2.60
2018-07-30T03:02:22.819Z,2.30
2018-07-30T03:03:22.845Z,2.40
2018-07-30T03:04:22.804Z,2.30
2018-07-30T03:05:22.819Z,2.40
2018-07-30T03:06:22.816Z,2.50
2018-07-30T03:07:22.766Z,2.50
2018-07-30T03:08:22.800Z,2.60
2018-07-30T03:09:22.747Z,2.40
2018-07-30T03:10:22.737Z,2.60
2018-07-30T03:11:22.773Z,2.50
2018-07-30T03:12:22.710Z,2.50
2018-07-30T03:13:22.702Z,2.50
2018-07-30T03:14:22.686Z,2.60
2018-07-30T03:15:22.675Z,2.60
2018-07-30T03:16:22.717Z,2.30
2018-07-30T03:17:22.652Z,2.50
2018-07-30T03:18:22.649Z,2.60
2018-07-30T03:19:22.633Z,2.60
2018-07-30T03:20:22.622Z,2.60
2018-07-30T03:21:22.662Z,2.40
2018-07-30T03:22:22.628Z,2.40
2018-07-30T03:23:22.592Z,2.70
2018-07-30T03:24:22.577Z,2.70
2018-07-30T03:25:22.563Z,2.50
2018-07-30T03:26:22.578Z,2.50
2018-07-30T03:27:22.596Z,2.60
2018-07-30T03:28:22.998Z,2.60
2018-07-30T03:29:22.520Z,2.70
2018-07-30T03:30:22.518Z,2.50
2018-07-30T03:31:22.583Z,2.20
2018-07-30T03:32:22.492Z,2.70
2018-07-30T03:33:22.477Z,2.70
2018-07-30T03:34:22.518Z,2.90
2018-07-30T03:35:22.459Z,2.60
2018-07-30T03:36:22.473Z,2.50
2018-07-30T03:37:22.448Z,2.40
2018-07-30T03:38:22.428Z,2.80
2018-07-30T03:39:22.455Z,2.50
2018-07-30T03:40:22.414Z,2.50
2018-07-30T03:41:22.424Z,2.70
2018-07-30T03:42:22.481Z,2.50
2018-07-30T03:43:22.411Z,2.80
2018-07-30T03:44:22.371Z,2.70
2018-07-30T03:45:22.376Z,2.60
2018-07-30T03:46:22.399Z,2.90
2018-07-30T03:47:22.330Z,2.80
2018-07-30T03:48:22.319Z,2.60
2018-07-30T03:49:22.308Z,2.40
2018-07-30T03:50:22.295Z,2.70
2018-07-30T03:51:22.313Z,2.80
2018-07-30T03:52:22.304Z,2.80
2018-07-30T03:53:22.277Z,2.80
2018-07-30T03:54:22.281Z,2.70
2018-07-30T03:55:22.249Z,2.50
2018-07-30T03:56:22.306Z,2.60
2018-07-30T03:57:22.299Z,2.60
2018-07-30T03:58:22.214Z,2.90
2018-07-30T03:59:22.198Z,3.00
2018-07-30T04:00:22.311Z,2.70
2018-07-30T04:01:22.212Z,2.50
2018-07-30T04:02:22.170Z,2.70
2018-07-30T04:03:22.178Z,2.80
2018-07-30T04:04:22.144Z,2.80
2018-07-30T04:05:22.134Z,3.00
2018-07-30T04:06:22.164Z,2.70
2018-07-30T04:07:22.119Z,2.90
2018-07-30T04:08:22.399Z,2.80
2018-07-30T04:09:22.099Z,2.90
2018-07-30T04:10:22.081Z,2.60
2018-07-30T04:11:22.096Z,2.70
2018-07-30T04:12:22.101Z,2.60
2018-07-30T04:13:22.046Z,2.60
2018-07-30T04:14:22.040Z,2.80
2018-07-30T04:15:22.056Z,2.80
2018-07-30T04:16:22.041Z,2.60
2018-07-30T04:17:22.027Z,2.60
2018-07-30T04:18:22.713Z,2.80
2018-07-30T04:19:22.006Z,2.60
2018-07-30T04:20:21.971Z,2.60
2018-07-30T04:21:21.998Z,2.70
2018-07-30T04:22:21.950Z,2.80
2018-07-30T04:23:21.944Z,2.60
2018-07-30T04:24:21.928Z,2.80
2018-07-30T04:25:21.918Z,2.90
2018-07-30T04:26:21.981Z,2.60
2018-07-30T04:27:21.899Z,2.90
2018-07-30T04:28:21.887Z,2.50
2018-07-30T04:29:21.907Z,3.00
2018-07-30T04:30:21.896Z,2.60
2018-07-30T04:31:21.883Z,3.00
2018-07-30T04:32:21.841Z,2.80
2018-07-30T04:33:21.832Z,2.70
2018-07-30T04:34:21.835Z,2.60
2018-07-30T04:35:22.458Z,2.50
2018-07-30T04:36:21.855Z,2.70
2018-07-30T04:37:21.786Z,2.90
2018-07-30T04:38:21.778Z,2.80
2018-07-30T04:39:21.805Z,2.60
2018-07-30T04:40:21.776Z,2.70
2018-07-30T04:41:21.772Z,2.50
2018-07-30T04:42:21.748Z,2.50
2018-07-30T04:43:21.731Z,3.00
2018-07-30T04:44:21.776Z,2.90
2018-07-30T04:45:21.732Z,3.00
2018-07-30T04:46:21.749Z,2.80
2018-07-30T04:47:21.744Z,2.80
2018-07-30T04:48:21.664Z,2.70
2018-07-30T04:49:21.690Z,2.50
2018-07-30T04:50:21.697Z,2.50
2018-07-30T04:51:21.686Z,2.60
2018-07-30T04:52:21.621Z,2.80
2018-07-30T04:53:21.608Z,2.60
2018-07-30T04:54:21.602Z,2.90
2018-07-30T04:55:21.586Z,2.70
2018-07-30T04:56:21.617Z,2.90
2018-07-30T04:57:21.562Z,2.70
2018-07-30T04:58:21.555Z,2.50
2018-07-30T04:59:21.549Z,2.70
2018-07-30T05:00:21.531Z,2.80
2018-07-30T05:01:21.547Z,2.60
2018-07-30T05:02:21.599Z,2.90
2018-07-30T05:03:21.518Z,3.00
2018-07-30T05:04:21.497Z,2.90
2018-07-30T05:05:21.481Z,2.60
2018-07-30T05:06:21.541Z,2.80
2018-07-30T05:07:21.454Z,2.80
2018-07-30T05:08:21.445Z,2.90
2018-07-30T05:09:21.445Z,3.00
2018-07-30T05:10:21.433Z,3.00
2018-07-30T05:11:21.500Z,3.20
2018-07-30T05:12:21.404Z,3.10
2018-07-30T05:13:21.394Z,2.80
2018-07-30T05:14:21.378Z,3.40
2018-07-30T05:15:21.402Z,2.90
2018-07-30T05:16:21.390Z,2.90
2018-07-30T05:17:21.346Z,3.00
2018-07-30T05:18:21.337Z,2.60
2018-07-30T05:19:21.394Z,3.30
2018-07-30T05:20:21.313Z,3.00
2018-07-30T05:21:21.339Z,2.90
2018-07-30T05:22:21.291Z,3.00
2018-07-30T05:23:21.278Z,2.90
2018-07-30T05:24:21.278Z,3.00
2018-07-30T05:25:21.257Z,2.90
2018-07-30T05:26:21.273Z,2.90
2018-07-30T05:27:21.259Z,3.00
2018-07-30T05:28:21.222Z,2.70
2018-07-30T05:29:21.213Z,2.70
2018-07-30T05:30:21.200Z,2.30
2018-07-30T05:31:21.220Z,2.80
2018-07-30T05:32:21.178Z,3.10
2018-07-30T05:33:21.191Z,2.80
2018-07-30T05:34:21.156Z,2.70
2018-07-30T05:35:21.161Z,2.50
2018-07-30T05:36:21.185Z,2.60
2018-07-30T05:37:21.174Z,2.60
2018-07-30T05:38:21.113Z,2.90
2018-07-30T05:39:21.134Z,2.90
2018-07-30T05:40:21.092Z,2.50
2018-07-30T05:41:21.108Z,2.70
2018-07-30T05:42:21.069Z,2.80
2018-07-30T05:43:21.063Z,2.80
2018-07-30T05:44:21.059Z,2.70
2018-07-30T05:45:21.063Z,2.60
2018-07-30T05:46:21.132Z,2.40
2018-07-30T05:47:21.055Z,2.50
2018-07-30T05:48:21.008Z,2.50
2018-07-30T05:49:21.046Z,2.50
2018-07-30T05:50:21.000Z,2.50
2018-07-30T05:51:21.001Z,2.60
2018-07-30T05:52:20.964Z,2.80
2018-07-30T05:53:20.990Z,2.80
2018-07-30T05:54:20.953Z,2.40
2018-07-30T05:55:20.931Z,2.60
2018-07-30T05:56:20.922Z,2.60
2018-07-30T05:57:20.934Z,2.80
2018-07-30T05:58:20.926Z,2.70
2018-07-30T05:59:20.945Z,2.60
2018-07-30T06:00:20.877Z,2.80
2018-07-30T06:01:20.864Z,2.60
2018-07-30T06:02:20.919Z,2.80
2018-07-30T06:03:20.842Z,2.60
2018-07-30T06:04:20.861Z,2.60
2018-07-30T06:05:20.885Z,2.60
2018-07-30T06:06:20.816Z,2.60
2018-07-30T06:07:20.852Z,2.70
2018-07-30T06:08:20.789Z,2.60
2018-07-30T06:09:20.779Z,2.70
2018-07-30T06:10:20.782Z,2.80
2018-07-30T06:11:20.758Z,2.60
2018-07-30T06:12:20.777Z,2.70
2018-07-30T06:13:20.759Z,2.90
2018-07-30T06:14:20.754Z,2.80
2018-07-30T06:15:20.720Z,2.70
2018-07-30T06:16:20.757Z,2.80
2018-07-30T06:17:20.693Z,2.70
2018-07-30T06:18:20.718Z,2.90
2018-07-30T06:19:20.672Z,2.70
2018-07-30T06:20:20.668Z,3.00
2018-07-30T06:21:20.648Z,2.90
2018-07-30T06:22:20.646Z,2.80
2018-07-30T06:23:20.690Z,2.70
2018-07-30T06:24:20.616Z,2.60
2018-07-30T06:25:20.621Z,2.60
2018-07-30T06:26:20.622Z,2.90
2018-07-30T06:27:20.619Z,2.90
2018-07-30T06:28:20.645Z,2.60
2018-07-30T06:29:20.615Z,2.60
2018-07-30T06:30:20.550Z,2.50
2018-07-30T06:31:20.544Z,2.50
2018-07-30T06:32:20.530Z,3.20
2018-07-30T06:33:20.545Z,2.50
2018-07-30T06:34:20.506Z,2.60
2018-07-30T06:35:20.511Z,2.50
2018-07-30T06:36:20.534Z,2.60
2018-07-30T06:37:20.485Z,2.60
2018-07-30T06:38:20.535Z,2.30
2018-07-30T06:39:20.459Z,2.60
2018-07-30T06:40:20.450Z,2.50
2018-07-30T06:41:20.602Z,2.70
2018-07-30T06:42:20.420Z,2.80
2018-07-30T06:43:20.446Z,2.60
2018-07-30T06:44:20.423Z,2.40
2018-07-30T06:45:20.397Z,2.50
2018-07-30T06:46:20.391Z,2.70
2018-07-30T06:47:20.368Z,2.50
2018-07-30T06:48:20.401Z,2.40
2018-07-30T06:49:20.347Z,2.60
2018-07-30T06:50:20.337Z,2.50
2018-07-30T06:51:20.406Z,2.90
2018-07-30T06:52:20.393Z,2.30
2018-07-30T06:53:20.433Z,2.60
2018-07-30T06:54:20.322Z,2.50
2018-07-30T06:55:20.286Z,2.90
2018-07-30T06:56:20.291Z,2.60
2018-07-30T06:57:20.260Z,2.60
2018-07-30T06:58:20.310Z,2.40
2018-07-30T06:59:20.257Z,2.60
2018-07-30T07:00:20.231Z,2.80
2018-07-30T07:01:20.216Z,2.30
2018-07-30T07:02:20.207Z,2.50
2018-07-30T07:03:20.289Z,2.20
2018-07-30T07:04:20.220Z,2.80
2018-07-30T07:05:20.175Z,2.70
2018-07-30T07:06:20.167Z,2.50
2018-07-30T07:07:20.154Z,2.60
2018-07-30T07:08:20.198Z,2.20
2018-07-30T07:09:20.138Z,2.40
2018-07-30T07:10:20.133Z,2.50
2018-07-30T07:11:20.137Z,2.40
2018-07-30T07:12:20.103Z,2.30
2018-07-30T07:13:20.117Z,2.30
2018-07-30T07:14:20.092Z,2.30
2018-07-30T07:15:20.071Z,2.40
2018-07-30T07:16:20.058Z,2.30
2018-07-30T07:17:20.071Z,2.40
2018-07-30T07:18:20.066Z,2.70
2018-07-30T07:19:20.024Z,2.40
2018-07-30T07:20:20.014Z,2.10
2018-07-30T07:21:20.116Z,2.20
2018-07-30T07:22:20.002Z,2.40
2018-07-30T07:23:20.030Z,2.40
2018-07-30T07:24:19.972Z,2.50
2018-07-30T07:25:19.965Z,2.40
2018-07-30T07:26:19.960Z,2.70
2018-07-30T07:27:19.950Z,2.20
2018-07-30T07:28:19.978Z,2.40
2018-07-30T07:29:19.931Z,2.30
2018-07-30T07:30:19.911Z,2.20
2018-07-30T07:31:20.271Z,2.40
2018-07-30T07:32:19.892Z,2.60
2018-07-30T07:33:19.934Z,2.30
2018-07-30T07:34:19.932Z,2.40
2018-07-30T07:35:19.854Z,2.30
2018-07-30T07:36:19.851Z,2.30
2018-07-30T07:37:20.894Z,2.40
2018-07-30T07:38:20.178Z,2.40
2018-07-30T07:39:19.842Z,2.80
2018-07-30T07:40:19.809Z,2.40
2018-07-30T07:41:19.799Z,2.30
2018-07-30T07:42:19.793Z,2.30
2018-07-30T07:43:19.803Z,2.40
2018-07-30T07:44:19.774Z,2.50
2018-07-30T07:45:19.766Z,2.50
2018-07-30T07:46:19.759Z,2.50
2018-07-30T07:47:19.738Z,2.20
2018-07-30T07:48:19.816Z,2.40
2018-07-30T07:49:19.720Z,2.50
2018-07-30T07:50:19.919Z,2.30
2018-07-30T07:51:19.686Z,2.20
2018-07-30T07:52:19.680Z,2.60
2018-07-30T07:53:19.737Z,2.60
2018-07-30T07:54:19.676Z,2.80
2018-07-30T07:55:19.642Z,2.60
2018-07-30T07:56:19.679Z,2.30
2018-07-30T07:57:19.621Z,2.50
2018-07-30T07:58:19.617Z,2.10
2018-07-30T07:59:19.630Z,2.50
2018-07-30T08:00:19.591Z,2.40
2018-07-30T08:01:19.586Z,2.20
2018-07-30T08:02:19.593Z,2.30
2018-07-30T08:03:19.556Z,2.50
2018-07-30T08:04:19.632Z,2.30
2018-07-30T08:05:19.535Z,2.30
2018-07-30T08:06:19.583Z,2.40
2018-07-30T08:07:19.536Z,2.30
2018-07-30T08:08:19.514Z,2.40
2018-07-30T08:09:19.522Z,2.60
2018-07-30T08:10:19.486Z,2.30
2018-07-30T08:11:19.482Z,2.30
2018-07-30T08:12:19.549Z,2.20
2018-07-30T08:13:19.488Z,2.10
2018-07-30T08:14:19.466Z,2.30
2018-07-30T08:15:19.445Z,2.20
2018-07-30T08:16:19.493Z,2.40
2018-07-30T08:17:19.440Z,2.40
2018-07-30T08:18:19.407Z,2.50
2018-07-30T08:19:19.449Z,2.00
2018-07-30T08:20:19.495Z,2.40
2018-07-30T08:21:19.383Z,2.20
2018-07-30T08:22:19.471Z,2.40
2018-07-30T08:23:19.492Z,2.50
2018-07-30T08:24:19.375Z,2.40
2018-07-30T08:25:19.394Z,2.30
2018-07-30T08:26:19.317Z,2.10
2018-07-30T08:27:19.310Z,2.30
2018-07-30T08:28:19.302Z,2.20
2018-07-30T08:29:19.346Z,2.40
2018-07-30T08:30:19.320Z,2.40
2018-07-30T08:31:19.288Z,2.40
2018-07-30T08:32:19.256Z,2.30
2018-07-30T08:33:19.253Z,2.40
2018-07-30T08:34:19.299Z,2.10
2018-07-30T08:35:19.226Z,2.40
2018-07-30T08:36:19.225Z,2.40
2018-07-30T08:37:19.207Z,2.10
2018-07-30T08:38:19.195Z,2.30
2018-07-30T08:39:19.293Z,2.50
2018-07-30T08:40:19.181Z,2.70
2018-07-30T08:41:19.163Z,2.90
2018-07-30T08:42:19.215Z,2.40
2018-07-30T08:43:19.147Z,2.40
2018-07-30T08:44:19.181Z,2.10
2018-07-30T08:45:19.118Z,2.50
2018-07-30T08:46:19.117Z,2.20
2018-07-30T08:47:19.100Z,2.20
2018-07-30T08:48:19.092Z,2.30
2018-07-30T08:49:19.103Z,2.40
2018-07-30T08:50:19.097Z,2.20
2018-07-30T08:51:19.083Z,2.30
2018-07-30T08:52:19.048Z,2.30
2018-07-30T08:53:19.044Z,2.50
2018-07-30T08:54:19.050Z,2.40
2018-07-30T08:55:19.026Z,2.30
2018-07-30T08:56:19.061Z,2.10
2018-07-30T08:57:19.032Z,2.10
2018-07-30T08:58:18.990Z,2.00
2018-07-30T08:59:18.996Z,2.60
2018-07-30T09:00:18.972Z,2.30
2018-07-30T09:01:18.956Z,2.50
2018-07-30T09:02:18.944Z,2.10
2018-07-30T09:03:18.965Z,2.10
2018-07-30T09:04:19.031Z,2.20
2018-07-30T09:05:18.910Z,2.00
2018-07-30T09:06:18.926Z,2.10
2018-07-30T09:07:18.908Z,2.30
2018-07-30T09:08:18.880Z,2.30
2018-07-30T09:09:18.915Z,2.40
2018-07-30T09:10:18.860Z,2.10
2018-07-30T09:11:18.859Z,2.20
2018-07-30T09:12:18.845Z,2.00
2018-07-30T09:13:18.886Z,2.10
2018-07-30T09:14:18.967Z,2.20
2018-07-30T09:15:18.844Z,2.10
2018-07-30T09:16:18.798Z,2.00
2018-07-30T09:17:18.828Z,2.30
2018-07-30T09:18:18.876Z,2.20
2018-07-30T09:19:18.803Z,2.20
2018-07-30T09:20:18.767Z,2.20
2018-07-30T09:21:18.918Z,2.40
2018-07-30T09:22:18.739Z,2.00
2018-07-30T09:23:18.899Z,2.00
2018-07-30T09:24:18.744Z,2.20
2018-07-30T09:25:18.741Z,2.20
2018-07-30T09:26:18.716Z,2.20
2018-07-30T09:27:18.686Z,2.20
2018-07-30T09:28:18.687Z,2.10
2018-07-30T09:29:18.703Z,1.90
2018-07-30T09:30:18.656Z,1.90
2018-07-30T09:31:18.649Z,2.00
2018-07-30T09:32:18.767Z,1.90
2018-07-30T09:33:18.721Z,2.10
2018-07-30T09:34:18.639Z,2.10
2018-07-30T09:35:18.600Z,2.30
2018-07-30T09:36:18.635Z,2.20
2018-07-30T09:37:18.651Z,2.00
2018-07-30T09:38:18.655Z,2.20
2018-07-30T09:39:18.668Z,2.40
2018-07-30T09:40:18.549Z,2.00
2018-07-30T09:41:18.578Z,2.50
2018-07-30T09:42:18.555Z,2.20
2018-07-30T09:43:18.519Z,2.30
2018-07-30T09:44:18.580Z,2.30
2018-07-30T09:45:18.496Z,2.10
2018-07-30T09:46:18.509Z,2.20
2018-07-30T09:47:18.483Z,2.30
2018-07-30T09:48:18.495Z,2.10
2018-07-30T09:49:18.488Z,2.30
2018-07-30T09:50:18.456Z,2.20
2018-07-30T09:51:18.496Z,2.50
2018-07-30T09:52:18.584Z,2.20
2018-07-30T09:53:18.681Z,2.30
2018-07-30T09:54:18.437Z,1.90
2018-07-30T09:55:18.394Z,2.40
2018-07-30T09:56:18.500Z,2.40
2018-07-30T09:57:18.379Z,2.30
2018-07-30T09:58:18.399Z,2.60
2018-07-30T09:59:18.384Z,2.20
2018-07-30T10:00:18.367Z,2.30
2018-07-30T10:01:18.515Z,2.50
2018-07-30T10:02:18.323Z,2.40
2018-07-30T10:03:18.325Z,2.40
2018-07-30T10:04:18.361Z,2.60
2018-07-30T10:05:18.496Z,2.00
2018-07-30T10:06:18.567Z,2.20
2018-07-30T10:07:18.279Z,2.30
2018-07-30T10:08:18.285Z,2.10
2018-07-30T10:09:18.303Z,2.70
2018-07-30T10:10:18.261Z,2.10
2018-07-30T10:11:18.412Z,2.50
2018-07-30T10:12:18.242Z,2.30
2018-07-30T10:13:18.221Z,2.50
2018-07-30T10:14:18.287Z,2.30
2018-07-30T10:15:18.189Z,2.10
2018-07-30T10:16:18.210Z,2.50
2018-07-30T10:17:18.168Z,2.20
2018-07-30T10:18:18.225Z,2.40
2018-07-30T10:19:18.193Z,2.70
2018-07-30T10:20:18.186Z,2.40
2018-07-30T10:21:18.121Z,2.60
2018-07-30T10:22:18.125Z,2.50
2018-07-30T10:23:18.105Z,2.60
2018-07-30T10:24:18.134Z,2.50
2018-07-30T10:25:18.095Z,2.30
2018-07-30T10:26:18.701Z,2.30
2018-07-30T10:27:18.064Z,2.60
2018-07-30T10:28:18.052Z,2.40
2018-07-30T10:29:18.122Z,2.30
2018-07-30T10:30:18.030Z,2.40
2018-07-30T10:31:18.059Z,2.50
2018-07-30T10:32:18.027Z,2.20
2018-07-30T10:33:18.034Z,2.50
2018-07-30T10:34:18.013Z,2.60
2018-07-30T10:35:17.984Z,2.30
2018-07-30T10:36:17.978Z,2.20
2018-07-30T10:37:17.986Z,2.30
2018-07-30T10:38:18.147Z,2.40
2018-07-30T10:39:17.988Z,2.50
2018-07-30T10:40:17.979Z,2.40
2018-07-30T10:41:17.930Z,2.30
2018-07-30T10:42:17.904Z,2.30
2018-07-30T10:43:17.914Z,2.30
2018-07-30T10:44:17.907Z,2.60
2018-07-30T10:45:17.884Z,2.30
2018-07-30T10:46:17.905Z,2.20
2018-07-30T10:47:17.852Z,2.50
2018-07-30T10:48:17.932Z,2.20
2018-07-30T10:49:17.859Z,2.20
2018-07-30T10:50:17.821Z,2.30
2018-07-30T10:51:17.824Z,2.30
2018-07-30T10:52:17.804Z,2.50
2018-07-30T10:53:17.790Z,2.40
2018-07-30T10:54:17.852Z,2.30
2018-07-30T10:55:17.803Z,2.50
2018-07-30T10:56:17.773Z,2.40
2018-07-30T10:57:17.791Z,2.20
2018-07-30T10:58:17.817Z,2.50
2018-07-30T10:59:17.761Z,2.40
2018-07-30T11:00:17.744Z,2.30
2018-07-30T11:01:17.742Z,2.30
2018-07-30T11:02:17.711Z,2.50
2018-07-30T11:03:17.725Z,2.60
2018-07-30T11:04:17.699Z,2.50
2018-07-30T11:05:17.695Z,2.20
2018-07-30T11:06:17.659Z,2.40
2018-07-30T11:07:17.650Z,2.60
2018-07-30T11:08:17.660Z,2.40
2018-07-30T11:09:17.652Z,2.50
2018-07-30T11:10:17.620Z,2.20
2018-07-30T11:11:17.613Z,2.50
2018-07-30T11:12:17.593Z,2.10
2018-07-30T11:13:17.583Z,2.50
2018-07-30T11:14:17.606Z,2.40
2018-07-30T11:15:17.605Z,2.50
2018-07-30T11:16:18.044Z,2.50
2018-07-30T11:17:17.560Z,2.40
2018-07-30T11:18:17.543Z,2.30
2018-07-30T11:19:17.562Z,2.30
2018-07-30T11:20:17.516Z,2.50
2018-07-30T11:21:17.518Z,2.50
2018-07-30T11:22:17.496Z,2.40
2018-07-30T11:23:17.486Z,2.80
2018-07-30T11:24:17.499Z,2.50
2018-07-30T11:25:17.499Z,2.40
2018-07-30T11:26:17.459Z,2.40
2018-07-30T11:27:17.470Z,2.10
2018-07-30T11:28:17.546Z,2.00
2018-07-30T11:29:17.480Z,2.20
2018-07-30T11:30:17.426Z,2.10
2018-07-30T11:31:17.414Z,2.20
2018-07-30T11:32:17.412Z,2.10
2018-07-30T11:33:17.643Z,2.10
2018-07-30T11:34:17.418Z,2.20
2018-07-30T11:35:17.378Z,2.10
2018-07-30T11:36:17.377Z,2.10
2018-07-30T11:37:17.365Z,2.10
2018-07-30T11:38:17.420Z,2.00
2018-07-30T11:39:17.376Z,2.00
2018-07-30T11:40:17.333Z,2.30
2018-07-30T11:41:17.327Z,2.10
2018-07-30T11:42:17.317Z,2.00
2018-07-30T11:43:17.313Z,2.10
2018-07-30T11:44:17.409Z,2.10
2018-07-30T11:45:17.288Z,2.10
2018-07-30T11:46:17.287Z,2.00
2018-07-30T11:47:17.277Z,2.10
2018-07-30T11:48:17.303Z,2.10
2018-07-30T11:49:17.430Z,2.00
2018-07-30T11:50:17.250Z,2.10
2018-07-30T11:51:17.259Z,2.00
2018-07-30T11:52:17.349Z,2.10
2018-07-30T11:53:17.239Z,2.20
2018-07-30T11:54:17.314Z,2.20
2018-07-30T11:55:17.220Z,2.10
2018-07-30T11:56:17.201Z,2.30
2018-07-30T11:57:17.962Z,2.10
2018-07-30T11:58:18.409Z,1.80
2018-07-30T11:59:17.512Z,2.00
2018-07-30T12:00:17.486Z,1.80
2018-07-30T12:01:17.365Z,2.00
2018-07-30T12:02:17.226Z,1.90
2018-07-30T12:03:17.176Z,1.80
2018-07-30T12:04:17.141Z,2.00
2018-07-30T12:05:17.339Z,2.20
2018-07-30T12:06:17.200Z,2.10
2018-07-30T12:07:17.177Z,2.00
2018-07-30T12:08:17.216Z,1.90
2018-07-30T12:09:17.141Z,2.20
2018-07-30T12:10:17.251Z,1.90
2018-07-30T12:11:17.129Z,2.10
2018-07-30T12:12:17.090Z,2.00
2018-07-30T12:13:17.164Z,2.00
2018-07-30T12:14:17.093Z,2.00
2018-07-30T12:15:17.078Z,1.80
2018-07-30T12:16:17.063Z,2.00
2018-07-30T12:17:17.041Z,2.10
2018-07-30T12:18:17.048Z,2.20
2018-07-30T12:19:17.025Z,2.20
2018-07-30T12:20:17.049Z,2.10
2018-07-30T12:21:17.001Z,2.10
2018-07-30T12:22:16.993Z,1.80
2018-07-30T12:23:16.981Z,1.80
2018-07-30T12:24:16.969Z,2.10
2018-07-30T12:25:17.004Z,2.00
2018-07-30T12:26:16.965Z,2.10
2018-07-30T12:27:16.941Z,2.10
2018-07-30T12:28:16.995Z,2.00
2018-07-30T12:29:16.924Z,2.00
2018-07-30T12:30:17.177Z,1.80
2018-07-30T12:31:16.919Z,2.20
2018-07-30T12:32:16.892Z,2.00
2018-07-30T12:33:16.884Z,2.30
2018-07-30T12:34:16.990Z,2.20
2018-07-30T12:35:17.011Z,2.00
2018-07-30T12:36:16.975Z,2.10
2018-07-30T12:37:16.901Z,2.20
2018-07-30T12:38:16.836Z,2.20
2018-07-30T12:39:16.880Z,2.00
2018-07-30T12:40:16.848Z,2.00
2018-07-30T12:41:16.894Z,2.00
2018-07-30T12:42:16.817Z,2.50
2018-07-30T12:43:17.851Z,1.90
2018-07-30T12:44:16.826Z,2.00
2018-07-30T12:45:16.895Z,2.20
2018-07-30T12:46:16.758Z,2.40
2018-07-30T12:47:16.753Z,2.30
2018-07-30T12:48:16.831Z,2.20
2018-07-30T12:49:16.731Z,2.20
2018-07-30T12:50:16.743Z,2.10
2018-07-30T12:51:16.753Z,2.10
2018-07-30T12:52:16.734Z,1.90
2018-07-30T12:53:16.691Z,2.50
2018-07-30T12:54:16.685Z,1.90
2018-07-30T12:55:16.697Z,2.30
2018-07-30T12:56:16.660Z,2.50
2018-07-30T12:57:16.650Z,2.10
2018-07-30T12:58:16.642Z,2.40
2018-07-30T12:59:16.635Z,2.20
2018-07-30T13:00:16.845Z,2.20
2018-07-30T13:01:16.633Z,2.10
2018-07-30T13:02:16.631Z,2.30
2018-07-30T13:03:16.682Z,2.20
2018-07-30T13:04:16.598Z,2.20
2018-07-30T13:05:16.611Z,2.40
2018-07-30T13:06:16.670Z,2.20
2018-07-30T13:07:16.758Z,2.10
2018-07-30T13:08:16.677Z,1.90
2018-07-30T13:09:16.577Z,2.00
2018-07-30T13:10:16.545Z,2.40
2018-07-30T13:11:16.512Z,2.10
2018-07-30T13:12:16.863Z,2.20
2018-07-30T13:13:16.541Z,2.30
2018-07-30T13:14:16.513Z,2.20
2018-07-30T13:15:16.527Z,2.20
2018-07-30T13:16:16.513Z,2.30
2018-07-30T13:17:16.616Z,2.40
2018-07-30T13:18:16.445Z,2.00